Amador Station, California
Current Conditions -  °F | °C
As of 1:35 PM on Friday 19 Dec 2014 (Local Time) from KPVF Reporting Station
Overcast Overcast  
Wind Chill: 40°   Ceiling: 4300
Heat Index: 45°   Visibility: 5mi
Dew Point: 41°   Wind: 9mph
Humidity: 87%   Direction: 130°SE
Pressure: 30.17"   Gusts: NA
Location:  38.5644°N, 120.32°W
Report Text: KPVF 192135Z AUTO 13008KT 5SM OVC043 07/05 A3017 RMK AO1 P0003
Loading
Personal Weather Stations






























Interactive Weather Map New forecast layout! Learn more

10-Day Weather Forecast

Advertisements
Track Severe Weather on mobile